createdAt,value
2023-04-16T00:01:57.070Z,9.00
2023-04-16T00:04:24.178Z,9.00
2023-04-16T00:06:51.039Z,8.90
2023-04-16T00:09:17.738Z,8.90
2023-04-16T00:11:44.469Z,9.10
2023-04-16T00:14:11.158Z,9.00
2023-04-16T00:16:38.530Z,9.00
2023-04-16T00:19:05.473Z,8.90
2023-04-16T00:21:32.251Z,8.90
2023-04-16T00:23:58.938Z,9.00
2023-04-16T00:26:25.684Z,9.00
2023-04-16T00:28:52.515Z,9.00
2023-04-16T00:31:26.021Z,9.00
2023-04-16T00:33:53.326Z,9.00
2023-04-16T00:36:20.099Z,9.10
2023-04-16T00:38:46.740Z,9.20
2023-04-16T00:41:14.214Z,9.00
2023-04-16T00:43:41.749Z,9.00
2023-04-16T00:46:08.795Z,9.20
2023-04-16T00:48:37.671Z,9.10
2023-04-16T00:51:08.894Z,9.00
2023-04-16T00:53:36.222Z,9.00
2023-04-16T00:56:04.809Z,9.00
2023-04-16T00:58:33.101Z,9.20
2023-04-16T01:01:00.349Z,9.00
2023-04-16T01:03:38.487Z,9.00
2023-04-16T01:06:07.281Z,9.00
2023-04-16T01:08:34.274Z,9.20
2023-04-16T01:11:01.277Z,9.10
2023-04-16T01:13:27.934Z,9.00
2023-04-16T01:15:54.712Z,8.90
2023-04-16T01:18:22.714Z,9.00
2023-04-16T01:20:50.322Z,9.00
2023-04-16T01:23:18.901Z,9.00
2023-04-16T01:25:46.310Z,9.10
2023-04-16T01:28:13.306Z,9.20
2023-04-16T01:30:39.939Z,9.00
2023-04-16T01:33:32.813Z,9.00
2023-04-16T01:35:59.513Z,9.10
2023-04-16T01:38:26.178Z,9.00
2023-04-16T01:40:59.571Z,9.00
2023-04-16T01:43:26.293Z,9.10
2023-04-16T01:46:18.336Z,8.90
2023-04-16T01:48:45.251Z,9.00
2023-04-16T01:51:12.052Z,9.00
2023-04-16T01:53:38.763Z,9.20
2023-04-16T01:56:06.448Z,9.10
2023-04-16T01:58:33.897Z,9.00
2023-04-16T02:01:00.803Z,8.90
2023-04-16T02:03:28.037Z,9.00
2023-04-16T02:05:54.864Z,8.80
2023-04-16T02:08:21.600Z,8.80
2023-04-16T02:10:50.045Z,8.80
2023-04-16T02:13:17.395Z,8.80
2023-04-16T02:15:50.288Z,8.80
2023-04-16T02:18:23.118Z,9.00
2023-04-16T02:20:49.900Z,8.90
2023-04-16T02:23:17.635Z,9.00
2023-04-16T02:25:46.519Z,8.90
2023-04-16T02:28:16.298Z,8.90
2023-04-16T02:30:45.147Z,9.00
2023-04-16T02:33:13.374Z,9.20
2023-04-16T02:35:48.890Z,9.20
2023-04-16T02:38:15.600Z,9.20
2023-04-16T02:40:42.307Z,9.10
2023-04-16T02:43:09.472Z,9.10
2023-04-16T02:45:36.453Z,9.00
2023-04-16T02:48:03.403Z,9.00
2023-04-16T02:50:30.366Z,9.20
2023-04-16T02:52:57.057Z,9.10
2023-04-16T02:55:23.760Z,9.00
2023-04-16T02:57:50.600Z,8.90
2023-04-16T03:00:17.461Z,9.10
2023-04-16T03:02:44.291Z,9.10
2023-04-16T03:05:12.271Z,9.10
2023-04-16T03:07:40.660Z,9.00
2023-04-16T03:10:08.008Z,8.90
2023-04-16T03:12:35.315Z,9.00
2023-04-16T03:15:02.452Z,9.00
2023-04-16T03:17:30.085Z,9.10
2023-04-16T03:19:56.877Z,9.20
2023-04-16T03:22:23.717Z,9.20
2023-04-16T03:24:50.753Z,9.20
2023-04-16T03:27:17.469Z,9.30
2023-04-16T03:29:45.236Z,9.10
2023-04-16T03:32:12.683Z,9.10
2023-04-16T03:34:39.469Z,9.00
2023-04-16T03:37:06.533Z,8.70
2023-04-16T03:39:34.612Z,8.70
2023-04-16T03:42:02.152Z,8.80
2023-04-16T03:44:29.393Z,9.00
2023-04-16T03:46:56.211Z,9.00
2023-04-16T03:49:23.078Z,9.20
2023-04-16T03:51:49.708Z,9.00
2023-04-16T03:54:16.479Z,9.10
2023-04-16T03:56:48.423Z,9.00
2023-04-16T03:59:15.208Z,8.80
2023-04-16T04:01:41.873Z,8.80
2023-04-16T04:04:09.540Z,8.90
2023-04-16T04:06:36.441Z,9.00
2023-04-16T04:09:03.884Z,9.00
2023-04-16T04:11:30.588Z,8.90
2023-04-16T04:13:57.359Z,8.90
2023-04-16T04:16:24.501Z,8.90
2023-04-16T04:18:51.220Z,8.80
2023-04-16T04:21:17.922Z,9.00
2023-04-16T04:23:44.667Z,9.00
2023-04-16T04:26:11.705Z,9.00
2023-04-16T04:28:39.997Z,8.80
2023-04-16T04:31:06.626Z,8.90
2023-04-16T04:33:33.438Z,9.00
2023-04-16T04:36:00.196Z,9.20
2023-04-16T04:38:28.088Z,9.10
2023-04-16T04:40:54.854Z,8.80
2023-04-16T04:43:23.506Z,8.80
2023-04-16T04:45:50.942Z,8.90
2023-04-16T04:48:18.159Z,9.00
2023-04-16T04:50:46.100Z,9.10
2023-04-16T04:53:14.842Z,9.10
2023-04-16T04:55:41.755Z,9.30
2023-04-16T04:58:09.123Z,9.40
2023-04-16T05:00:37.275Z,9.20
2023-04-16T05:03:06.293Z,9.10
2023-04-16T05:05:33.012Z,9.10
2023-04-16T05:07:59.767Z,9.20
2023-04-16T05:10:27.085Z,9.20
2023-04-16T05:12:53.766Z,9.20
2023-04-16T05:15:20.532Z,9.20
2023-04-16T05:17:47.278Z,9.20
2023-04-16T05:20:13.961Z,9.10
2023-04-16T05:22:40.665Z,9.20
2023-04-16T05:25:07.650Z,9.30
2023-04-16T05:27:34.311Z,9.40
2023-04-16T05:30:00.941Z,9.30
2023-04-16T05:32:27.824Z,9.20
2023-04-16T05:34:54.607Z,9.20
2023-04-16T05:37:21.297Z,9.30
2023-04-16T05:39:47.999Z,9.40
2023-04-16T05:42:14.663Z,9.50
2023-04-16T05:44:41.418Z,9.50
2023-04-16T05:47:09.357Z,9.40
2023-04-16T05:49:39.424Z,9.60
2023-04-16T05:52:07.259Z,9.60
2023-04-16T05:54:33.936Z,9.60
2023-04-16T05:57:01.739Z,9.60
2023-04-16T05:59:29.218Z,9.60
2023-04-16T06:01:56.031Z,9.70
2023-04-16T06:04:22.921Z,9.90
2023-04-16T06:06:49.602Z,9.70
2023-04-16T06:09:16.592Z,9.70
2023-04-16T06:11:43.248Z,9.70
2023-04-16T06:14:09.906Z,9.80
2023-04-16T06:16:36.565Z,9.90
2023-04-16T06:19:03.217Z,9.80
2023-04-16T06:21:29.912Z,9.70
2023-04-16T06:23:56.580Z,9.70
2023-04-16T06:26:23.316Z,9.70
2023-04-16T06:28:50.402Z,9.70
2023-04-16T06:31:17.176Z,9.70
2023-04-16T06:33:43.898Z,9.60
2023-04-16T06:36:11.529Z,9.70
2023-04-16T06:38:38.405Z,9.70
2023-04-16T06:41:05.484Z,9.70
2023-04-16T06:43:33.500Z,9.70
2023-04-16T06:46:00.183Z,9.80
2023-04-16T06:48:27.416Z,9.70
2023-04-16T06:50:54.944Z,9.70
2023-04-16T06:53:21.734Z,9.50
2023-04-16T06:55:48.348Z,9.60
2023-04-16T06:58:15.121Z,9.80
2023-04-16T07:00:41.851Z,9.80
2023-04-16T07:03:08.855Z,9.80
2023-04-16T07:05:35.957Z,9.80
2023-04-16T07:08:02.577Z,9.90
2023-04-16T07:10:29.285Z,10.00
2023-04-16T07:12:55.997Z,9.80
2023-04-16T07:15:22.752Z,9.80
2023-04-16T07:17:49.418Z,9.50
2023-04-16T07:20:16.303Z,9.30
2023-04-16T07:22:43.393Z,9.30
2023-04-16T07:25:10.319Z,9.20
2023-04-16T07:27:36.936Z,9.20
2023-04-16T07:30:03.944Z,9.20
2023-04-16T07:32:30.829Z,9.30
2023-04-16T07:34:57.848Z,9.40
2023-04-16T07:37:24.528Z,9.60
2023-04-16T07:39:52.423Z,9.60
2023-04-16T07:42:19.290Z,9.60
2023-04-16T07:44:46.014Z,9.70
2023-04-16T07:47:12.631Z,9.90
2023-04-16T07:49:39.533Z,9.90
2023-04-16T07:52:06.243Z,9.90
2023-04-16T07:54:33.019Z,10.00
2023-04-16T07:56:59.652Z,10.00
2023-04-16T07:59:26.631Z,10.10
2023-04-16T08:01:54.146Z,10.00
2023-04-16T08:04:25.038Z,10.10
2023-04-16T08:06:53.081Z,9.90
2023-04-16T08:09:21.600Z,9.80
2023-04-16T08:11:49.841Z,9.90
2023-04-16T08:14:17.116Z,10.00
2023-04-16T08:16:43.779Z,10.10
2023-04-16T08:19:10.983Z,10.10
2023-04-16T08:21:38.396Z,9.80
2023-04-16T08:24:05.383Z,9.90
2023-04-16T08:26:32.046Z,9.90
2023-04-16T08:28:58.695Z,10.00
2023-04-16T08:31:25.600Z,10.10
2023-04-16T08:33:52.312Z,10.00
2023-04-16T08:36:19.082Z,9.70
2023-04-16T08:38:45.707Z,9.60
2023-04-16T08:41:13.486Z,9.70
2023-04-16T08:43:44.548Z,9.70
2023-04-16T08:46:12.415Z,9.60
2023-04-16T08:48:41.902Z,9.50
2023-04-16T08:51:11.174Z,9.50
2023-04-16T08:53:49.107Z,9.50
2023-04-16T08:56:17.622Z,9.70
2023-04-16T08:58:47.391Z,9.70
2023-04-16T09:01:15.228Z,9.80
2023-04-16T09:03:42.774Z,9.60
2023-04-16T09:06:10.114Z,9.60
2023-04-16T09:08:38.077Z,9.60
2023-04-16T09:11:04.835Z,9.60
2023-04-16T09:13:32.189Z,9.60
2023-04-16T09:15:59.716Z,9.50
2023-04-16T09:18:28.016Z,9.40
2023-04-16T09:20:56.346Z,9.30
2023-04-16T09:23:23.273Z,9.20
2023-04-16T09:25:50.015Z,9.30
2023-04-16T09:28:39.566Z,9.40
2023-04-16T09:31:10.829Z,9.40
2023-04-16T09:33:37.526Z,9.50
2023-04-16T09:36:05.629Z,9.60
2023-04-16T09:38:52.605Z,9.60
2023-04-16T09:41:19.778Z,9.70
2023-04-16T09:43:59.042Z,9.70
2023-04-16T09:46:31.744Z,9.80
2023-04-16T09:48:58.605Z,10.00
2023-04-16T09:51:26.852Z,10.10
2023-04-16T09:53:54.773Z,9.90
2023-04-16T09:56:25.835Z,10.10
2023-04-16T09:58:58.386Z,10.30
2023-04-16T10:01:25.484Z,10.30
2023-04-16T10:03:56.079Z,10.40
2023-04-16T10:06:25.480Z,10.40
2023-04-16T10:08:56.977Z,10.50
2023-04-16T10:11:23.961Z,10.70
2023-04-16T10:13:51.429Z,10.60
2023-04-16T10:16:18.310Z,10.60
2023-04-16T10:18:46.895Z,10.70
2023-04-16T10:21:15.245Z,10.70
2023-04-16T10:23:43.280Z,10.80
2023-04-16T10:26:10.513Z,10.80
2023-04-16T10:28:37.286Z,10.80
2023-04-16T10:31:07.426Z,11.00
2023-04-16T10:33:36.388Z,10.80
2023-04-16T10:36:24.367Z,10.80
2023-04-16T10:38:52.732Z,10.90
2023-04-16T10:41:22.369Z,10.90
2023-04-16T10:43:50.869Z,10.80
2023-04-16T10:46:26.866Z,10.50
2023-04-16T10:48:54.923Z,10.30
2023-04-16T10:51:34.025Z,10.50
2023-04-16T10:54:14.298Z,10.50
2023-04-16T10:56:40.999Z,10.60
2023-04-16T10:59:11.117Z,10.70
2023-04-16T11:01:41.894Z,10.90
2023-04-16T11:04:21.099Z,11.00
2023-04-16T11:07:16.430Z,11.10
2023-04-16T11:09:52.237Z,11.00
2023-04-16T11:12:29.271Z,11.20
2023-04-16T11:15:09.620Z,11.10
2023-04-16T11:17:50.311Z,11.00
2023-04-16T11:20:21.494Z,10.80
2023-04-16T11:22:49.407Z,10.90
2023-04-16T11:25:34.532Z,10.90
2023-04-16T11:28:02.474Z,11.00
2023-04-16T11:30:34.350Z,11.10
2023-04-16T11:33:09.748Z,11.10
2023-04-16T11:35:36.611Z,11.00
2023-04-16T11:38:04.053Z,11.00
2023-04-16T11:40:31.439Z,11.10
2023-04-16T11:43:13.223Z,11.20
2023-04-16T11:45:54.950Z,11.10
2023-04-16T11:48:21.957Z,11.00
2023-04-16T11:50:57.924Z,11.10
2023-04-16T11:53:24.790Z,11.30
2023-04-16T11:55:51.515Z,11.30
2023-04-16T11:58:19.136Z,11.00
2023-04-16T12:00:47.418Z,10.90
2023-04-16T12:03:14.295Z,11.00
2023-04-16T12:05:41.300Z,11.20
2023-04-16T12:08:09.752Z,11.20
2023-04-16T12:10:52.239Z,11.10
2023-04-16T12:13:19.642Z,11.20
2023-04-16T12:15:50.135Z,11.10
2023-04-16T12:18:18.478Z,11.30
2023-04-16T12:20:46.552Z,11.20
2023-04-16T12:23:42.745Z,11.20
2023-04-16T12:26:12.452Z,11.10
2023-04-16T12:28:40.134Z,11.10
2023-04-16T12:31:07.286Z,11.10
2023-04-16T12:33:34.007Z,11.30
2023-04-16T12:36:01.716Z,11.50
2023-04-16T12:38:28.929Z,11.50
2023-04-16T12:40:57.122Z,11.40
2023-04-16T12:43:24.937Z,11.70
2023-04-16T12:45:51.618Z,11.60
2023-04-16T12:48:18.277Z,11.50
2023-04-16T12:50:45.018Z,11.40
2023-04-16T12:53:12.102Z,11.30
2023-04-16T12:55:39.115Z,11.30
2023-04-16T12:58:06.582Z,11.20
2023-04-16T13:00:33.225Z,10.90
2023-04-16T13:03:00.073Z,11.00
2023-04-16T13:05:27.062Z,11.10
2023-04-16T13:07:54.123Z,11.30
2023-04-16T13:10:22.082Z,11.30
2023-04-16T13:12:49.179Z,11.40
2023-04-16T13:15:16.044Z,11.40
2023-04-16T13:17:43.165Z,11.20
2023-04-16T13:20:10.525Z,11.00
2023-04-16T13:22:37.505Z,11.00
2023-04-16T13:25:04.817Z,10.90
2023-04-16T13:27:32.483Z,10.80
2023-04-16T13:29:59.155Z,10.80
2023-04-16T13:32:25.920Z,10.80
2023-04-16T13:34:52.642Z,10.80
2023-04-16T13:37:19.371Z,10.90
2023-04-16T13:39:46.348Z,11.00
2023-04-16T13:42:13.042Z,11.00
2023-04-16T13:44:39.693Z,11.00
2023-04-16T13:47:06.595Z,11.10
2023-04-16T13:49:36.004Z,10.90
2023-04-16T13:52:03.270Z,11.00
2023-04-16T13:54:29.938Z,11.10
2023-04-16T13:56:56.772Z,11.10
2023-04-16T13:59:23.546Z,11.30
2023-04-16T14:01:51.009Z,11.40
2023-04-16T14:04:17.859Z,11.40
2023-04-16T14:06:44.745Z,11.30
2023-04-16T14:09:11.689Z,11.00
2023-04-16T14:11:38.464Z,11.00
2023-04-16T14:14:05.389Z,11.00
2023-04-16T14:16:32.121Z,11.10
2023-04-16T14:18:58.762Z,11.20
2023-04-16T14:21:26.932Z,11.20
2023-04-16T14:23:53.561Z,11.20
2023-04-16T14:26:20.619Z,11.20
2023-04-16T14:28:47.769Z,11.40
2023-04-16T14:31:14.500Z,11.40
2023-04-16T14:33:41.184Z,11.50
2023-04-16T14:36:07.920Z,11.60
2023-04-16T14:38:34.605Z,11.60
2023-04-16T14:41:01.361Z,11.70
2023-04-16T14:43:28.047Z,11.50
2023-04-16T14:45:54.786Z,11.50
2023-04-16T14:48:22.128Z,11.80
2023-04-16T14:50:48.955Z,11.90
2023-04-16T14:53:15.873Z,12.00
2023-04-16T14:55:42.599Z,11.80
2023-04-16T14:58:10.696Z,11.70
2023-04-16T15:00:37.904Z,11.50
2023-04-16T15:03:05.573Z,11.10
2023-04-16T15:05:32.648Z,11.00
2023-04-16T15:08:00.412Z,11.20
2023-04-16T15:10:27.336Z,11.10
2023-04-16T15:12:54.083Z,11.00
2023-04-16T15:15:20.864Z,11.00
2023-04-16T15:17:47.657Z,10.80
2023-04-16T15:20:15.206Z,10.60
2023-04-16T15:22:42.250Z,10.50
2023-04-16T15:25:09.312Z,10.40
2023-04-16T15:27:36.548Z,10.40
2023-04-16T15:30:03.521Z,10.50
2023-04-16T15:32:31.151Z,10.50
2023-04-16T15:34:57.877Z,10.50
2023-04-16T15:37:24.585Z,10.60
2023-04-16T15:39:51.251Z,10.40
2023-04-16T15:42:17.929Z,10.50
2023-04-16T15:44:44.617Z,10.60
2023-04-16T15:47:11.559Z,10.80
2023-04-16T15:49:38.210Z,10.90
2023-04-16T15:52:04.921Z,10.80
2023-04-16T15:54:31.956Z,10.70
2023-04-16T15:56:58.797Z,10.80
2023-04-16T15:59:26.566Z,10.90
2023-04-16T16:01:53.795Z,10.80
2023-04-16T16:04:22.776Z,10.80
2023-04-16T16:06:50.378Z,10.90
2023-04-16T16:09:17.050Z,11.10
2023-04-16T16:11:43.719Z,11.20
2023-04-16T16:14:10.780Z,11.10
2023-04-16T16:16:37.563Z,11.00
2023-04-16T16:19:04.472Z,11.00
2023-04-16T16:21:32.418Z,10.90
2023-04-16T16:23:59.119Z,10.80
2023-04-16T16:26:25.770Z,10.70
2023-04-16T16:28:52.399Z,10.60
2023-04-16T16:31:19.213Z,10.70
2023-04-16T16:33:45.914Z,10.60
2023-04-16T16:36:12.952Z,10.60
2023-04-16T16:38:42.535Z,10.50
2023-04-16T16:41:09.309Z,10.50
2023-04-16T16:43:38.864Z,10.70
2023-04-16T16:46:07.256Z,10.70
2023-04-16T16:48:33.968Z,10.70
2023-04-16T16:51:00.615Z,10.70
2023-04-16T16:53:27.388Z,10.60
2023-04-16T16:55:54.030Z,10.40
2023-04-16T16:58:20.746Z,10.40
2023-04-16T17:00:47.781Z,10.30
2023-04-16T17:03:14.657Z,10.10
2023-04-16T17:05:41.493Z,10.10
2023-04-16T17:08:08.201Z,10.30
2023-04-16T17:10:35.784Z,10.50
2023-04-16T17:13:02.568Z,10.60
2023-04-16T17:15:29.240Z,10.60
2023-04-16T17:17:56.378Z,10.70
2023-04-16T17:20:23.232Z,10.50
2023-04-16T17:22:51.016Z,10.60
2023-04-16T17:25:17.765Z,10.70
2023-04-16T17:27:44.519Z,10.60
2023-04-16T17:30:11.845Z,10.70
2023-04-16T17:32:38.523Z,10.70
2023-04-16T17:35:06.875Z,10.80
2023-04-16T17:37:33.785Z,10.70
2023-04-16T17:40:00.788Z,10.60
2023-04-16T17:42:27.481Z,10.60
2023-04-16T17:44:54.176Z,10.80
2023-04-16T17:47:21.006Z,10.60
2023-04-16T17:49:48.100Z,10.60
2023-04-16T17:52:14.908Z,10.60
2023-04-16T17:54:42.148Z,10.60
2023-04-16T17:57:09.196Z,10.50
2023-04-16T17:59:36.112Z,10.10
2023-04-16T18:02:02.842Z,10.00
2023-04-16T18:04:29.945Z,10.00
2023-04-16T18:06:56.866Z,10.10
2023-04-16T18:09:23.565Z,10.10
2023-04-16T18:11:50.252Z,10.30
2023-04-16T18:14:19.948Z,10.40
2023-04-16T18:16:47.961Z,10.50
2023-04-16T18:19:15.983Z,10.40
2023-04-16T18:21:43.099Z,10.40
2023-04-16T18:24:11.346Z,10.20
2023-04-16T18:26:40.058Z,10.20
2023-04-16T18:29:07.948Z,10.10
2023-04-16T18:31:34.738Z,10.20
2023-04-16T18:34:01.462Z,10.00
2023-04-16T18:36:28.467Z,10.10
2023-04-16T18:39:02.048Z,10.10
2023-04-16T18:41:30.423Z,10.10
2023-04-16T18:43:57.554Z,10.00
2023-04-16T18:46:25.111Z,9.80
2023-04-16T18:48:52.119Z,9.60
2023-04-16T18:51:19.048Z,9.80
2023-04-16T18:53:45.913Z,9.80
2023-04-16T18:56:12.968Z,9.90
2023-04-16T18:58:39.756Z,9.70
2023-04-16T19:01:11.038Z,9.70
2023-04-16T19:03:38.478Z,9.80
2023-04-16T19:06:05.889Z,9.80
2023-04-16T19:08:32.642Z,10.00
2023-04-16T19:10:59.345Z,10.10
2023-04-16T19:13:26.101Z,10.00
2023-04-16T19:15:59.328Z,10.00
2023-04-16T19:18:26.550Z,10.00
2023-04-16T19:21:00.017Z,10.00
2023-04-16T19:23:27.034Z,9.80
2023-04-16T19:25:56.155Z,10.00
2023-04-16T19:28:23.548Z,10.10
2023-04-16T19:30:51.353Z,10.10
2023-04-16T19:33:18.785Z,10.00
2023-04-16T19:35:46.319Z,9.90
2023-04-16T19:38:13.017Z,9.80
2023-04-16T19:40:40.254Z,9.80
2023-04-16T19:43:07.043Z,10.00
2023-04-16T19:45:33.739Z,10.00
2023-04-16T19:48:00.458Z,10.00
2023-04-16T19:50:27.336Z,10.10
2023-04-16T19:52:54.097Z,10.10
2023-04-16T19:55:20.883Z,10.20
2023-04-16T19:57:48.209Z,10.10
2023-04-16T20:00:15.266Z,10.10
2023-04-16T20:02:42.073Z,10.00
2023-04-16T20:05:09.367Z,9.90
2023-04-16T20:07:36.047Z,9.90
2023-04-16T20:10:03.054Z,10.00
2023-04-16T20:12:29.947Z,10.10
2023-04-16T20:14:57.544Z,9.90
2023-04-16T20:17:24.551Z,9.90
2023-04-16T20:19:51.808Z,10.00
2023-04-16T20:22:20.721Z,10.20
2023-04-16T20:24:48.216Z,10.00
2023-04-16T20:27:16.769Z,9.90
2023-04-16T20:29:46.577Z,9.90
2023-04-16T20:32:13.202Z,9.80
2023-04-16T20:34:40.573Z,9.80
2023-04-16T20:37:09.640Z,9.90
2023-04-16T20:39:36.505Z,10.10
2023-04-16T20:42:04.378Z,10.10
2023-04-16T20:44:40.451Z,10.00
2023-04-16T20:47:14.876Z,10.00
2023-04-16T20:49:47.836Z,10.10
2023-04-16T20:52:16.173Z,10.10
2023-04-16T20:54:42.889Z,9.90
2023-04-16T20:57:09.873Z,9.80
2023-04-16T20:59:36.988Z,10.00
2023-04-16T21:02:04.334Z,10.10
2023-04-16T21:04:31.560Z,10.10
2023-04-16T21:06:58.627Z,10.10
2023-04-16T21:09:25.921Z,9.80
2023-04-16T21:11:52.654Z,9.70
2023-04-16T21:14:19.617Z,9.70
2023-04-16T21:16:46.270Z,9.80
2023-04-16T21:19:15.617Z,9.80
2023-04-16T21:21:42.347Z,9.90
2023-04-16T21:24:09.270Z,9.80
2023-04-16T21:26:36.508Z,9.90
2023-04-16T21:29:04.171Z,9.60
2023-04-16T21:31:31.242Z,9.50
2023-04-16T21:33:58.239Z,9.60
2023-04-16T21:36:27.618Z,9.50
2023-04-16T21:38:54.456Z,9.80
2023-04-16T21:41:23.487Z,9.70
2023-04-16T21:43:50.527Z,9.70
2023-04-16T21:46:17.440Z,9.60
2023-04-16T21:48:44.847Z,9.60
2023-04-16T21:51:11.659Z,9.70
2023-04-16T21:53:39.235Z,9.70
2023-04-16T21:56:06.676Z,9.70
2023-04-16T21:58:33.449Z,9.70
2023-04-16T22:01:00.241Z,9.80
2023-04-16T22:03:28.223Z,9.80
2023-04-16T22:06:01.761Z,9.70
2023-04-16T22:08:32.410Z,9.60
2023-04-16T22:11:01.368Z,9.60
2023-04-16T22:13:32.577Z,9.80
2023-04-16T22:16:02.808Z,9.80
2023-04-16T22:18:32.935Z,9.80
2023-04-16T22:21:00.436Z,9.70
2023-04-16T22:23:27.534Z,9.60
2023-04-16T22:25:55.454Z,9.60
2023-04-16T22:28:22.247Z,9.60
2023-04-16T22:30:49.224Z,9.50
2023-04-16T22:33:16.258Z,9.50
2023-04-16T22:35:43.128Z,9.70
2023-04-16T22:38:10.441Z,9.50
2023-04-16T22:40:37.291Z,9.50
2023-04-16T22:43:04.324Z,9.60
2023-04-16T22:45:31.068Z,9.50
2023-04-16T22:47:57.755Z,9.60
2023-04-16T22:50:24.480Z,9.50
2023-04-16T22:52:51.127Z,9.40
2023-04-16T22:55:17.905Z,9.40
2023-04-16T22:57:44.538Z,9.50
2023-04-16T23:00:15.790Z,9.80
2023-04-16T23:02:42.986Z,9.60
2023-04-16T23:05:10.414Z,9.30
2023-04-16T23:07:37.225Z,9.20
2023-04-16T23:10:04.222Z,9.20
2023-04-16T23:12:30.923Z,9.10
2023-04-16T23:14:58.192Z,9.30
2023-04-16T23:17:24.917Z,9.50
2023-04-16T23:19:51.648Z,9.50
2023-04-16T23:22:18.304Z,9.40
2023-04-16T23:24:44.959Z,9.40
2023-04-16T23:27:11.668Z,9.50
2023-04-16T23:29:38.293Z,9.40
2023-04-16T23:32:05.033Z,9.30
2023-04-16T23:34:31.662Z,9.20
2023-04-16T23:36:58.337Z,9.30
2023-04-16T23:39:24.993Z,9.40
2023-04-16T23:41:51.912Z,9.30
2023-04-16T23:44:18.565Z,9.20
2023-04-16T23:46:45.417Z,9.10
2023-04-16T23:49:12.199Z,9.00
2023-04-16T23:51:38.936Z,9.10
2023-04-16T23:54:05.975Z,9.10
2023-04-16T23:56:32.792Z,9.20
2023-04-16T23:58:59.496Z,9.30
